createdAt,value
2022-08-17T00:01:08.446Z,99.90
2022-08-17T00:07:04.867Z,99.90
2022-08-17T00:12:59.675Z,99.90
2022-08-17T00:19:07.566Z,99.90
2022-08-17T00:25:02.054Z,99.90
2022-08-17T00:30:56.960Z,99.90
2022-08-17T00:43:16.073Z,99.90
2022-08-17T00:49:12.438Z,99.90
2022-08-17T00:55:07.515Z,99.90
2022-08-17T01:01:03.057Z,99.90
2022-08-17T01:07:01.089Z,99.90
2022-08-17T01:12:55.191Z,99.90
2022-08-17T01:18:50.293Z,99.90
2022-08-17T01:24:48.457Z,99.90
2022-08-17T01:30:56.538Z,99.90
2022-08-17T01:36:51.428Z,99.90
2022-08-17T01:42:48.348Z,99.90
2022-08-17T01:48:43.333Z,99.90
2022-08-17T01:54:38.057Z,99.90
2022-08-17T02:00:59.622Z,99.90
2022-08-17T02:06:53.321Z,99.90
2022-08-17T02:12:49.278Z,99.90
2022-08-17T02:18:44.245Z,99.90
2022-08-17T02:25:00.420Z,99.90
2022-08-17T02:31:00.766Z,99.90
2022-08-17T02:36:58.026Z,99.90
2022-08-17T02:42:51.576Z,99.90
2022-08-17T02:48:44.673Z,99.90
2022-08-17T02:54:42.253Z,99.90
2022-08-17T03:00:38.534Z,99.90
2022-08-17T03:06:32.154Z,99.90
2022-08-17T03:12:31.467Z,99.90
2022-08-17T03:18:26.423Z,99.90
2022-08-17T03:24:19.930Z,99.90
2022-08-17T03:30:15.042Z,99.90
2022-08-17T03:36:09.970Z,99.90
2022-08-17T03:42:05.758Z,99.90
2022-08-17T03:48:18.497Z,99.90
2022-08-17T03:54:29.637Z,99.90
2022-08-17T04:00:22.711Z,99.90
2022-08-17T04:06:17.490Z,99.90
2022-08-17T04:12:10.801Z,99.90
2022-08-17T04:18:04.195Z,99.90
2022-08-17T04:23:59.443Z,99.90
2022-08-17T04:29:55.015Z,99.90
2022-08-17T04:35:54.325Z,99.90
2022-08-17T04:42:06.586Z,99.90
2022-08-17T04:48:00.018Z,99.90
2022-08-17T04:53:56.536Z,99.90
2022-08-17T04:59:51.552Z,99.90
2022-08-17T05:05:49.961Z,99.90
2022-08-17T05:11:45.010Z,99.90
2022-08-17T05:17:39.872Z,99.90
2022-08-17T05:23:41.569Z,99.90
2022-08-17T05:29:36.804Z,99.90
2022-08-17T05:35:33.618Z,99.90
2022-08-17T05:41:27.109Z,99.90
2022-08-17T05:47:20.825Z,99.90
2022-08-17T05:53:24.514Z,99.90
2022-08-17T05:59:30.503Z,99.90
2022-08-17T06:05:46.419Z,99.90
2022-08-17T06:11:53.425Z,99.90
2022-08-17T06:17:47.562Z,99.90
2022-08-17T06:23:45.582Z,99.90
2022-08-17T06:29:46.991Z,99.90
2022-08-17T06:35:46.462Z,99.90
2022-08-17T06:41:47.443Z,99.90
2022-08-17T06:47:49.329Z,99.90
2022-08-17T06:53:49.078Z,99.90
2022-08-17T06:59:56.529Z,99.90
2022-08-17T07:05:54.727Z,99.90
2022-08-17T07:11:54.394Z,99.90
2022-08-17T07:17:48.548Z,99.90
2022-08-17T07:23:56.830Z,99.90
2022-08-17T07:29:53.958Z,99.90
2022-08-17T07:35:50.292Z,99.90
2022-08-17T07:41:53.232Z,99.90
2022-08-17T07:48:10.762Z,99.90
2022-08-17T07:54:28.939Z,99.90
2022-08-17T08:00:31.792Z,99.90
2022-08-17T08:06:27.697Z,99.90
2022-08-17T08:12:33.515Z,99.90
2022-08-17T08:18:54.392Z,99.90
2022-08-17T08:25:01.218Z,99.90
2022-08-17T08:31:05.334Z,99.90
2022-08-17T08:37:16.460Z,99.90
2022-08-17T08:43:20.694Z,99.90
2022-08-17T08:56:03.825Z,99.90
2022-08-17T09:02:14.333Z,99.90
2022-08-17T09:08:19.349Z,99.90
2022-08-17T09:14:21.518Z,99.90
2022-08-17T09:20:28.053Z,93.60
2022-08-17T09:26:25.729Z,82.80
2022-08-17T09:32:25.907Z,81.30
2022-08-17T09:38:32.162Z,72.80
2022-08-17T09:44:31.728Z,55.60
2022-08-17T09:50:55.356Z,56.30
2022-08-17T09:57:11.734Z,18.30
2022-08-17T10:03:32.734Z,9.80
2022-08-17T10:09:39.619Z,12.60
2022-08-17T10:15:47.182Z,18.50
2022-08-17T10:22:14.417Z,6.90
2022-08-17T10:28:19.865Z,1.00
2022-08-17T10:34:41.944Z,1.00
2022-08-17T10:40:46.646Z,1.00
2022-08-17T10:46:57.697Z,1.00
2022-08-17T10:52:51.231Z,1.00
2022-08-17T10:58:49.742Z,1.00
2022-08-17T11:04:59.211Z,1.00
2022-08-17T11:11:11.158Z,1.00
2022-08-17T11:17:25.437Z,1.00
2022-08-17T11:23:48.701Z,1.00
2022-08-17T11:29:58.163Z,1.00
2022-08-17T11:36:01.099Z,1.00
2022-08-17T11:42:05.651Z,1.00
2022-08-17T11:48:32.586Z,1.00
2022-08-17T11:54:42.503Z,1.00
2022-08-17T12:00:51.777Z,1.00
2022-08-17T12:06:51.466Z,1.00
2022-08-17T12:12:46.541Z,1.00
2022-08-17T12:18:49.481Z,1.00
2022-08-17T12:24:51.194Z,1.00
2022-08-17T12:30:50.334Z,1.00
2022-08-17T12:36:47.611Z,1.00
2022-08-17T12:42:41.466Z,1.00
2022-08-17T12:48:37.082Z,1.00
2022-08-17T12:54:39.318Z,1.00
2022-08-17T13:00:36.057Z,1.00
2022-08-17T13:06:32.417Z,1.00
2022-08-17T13:12:32.915Z,1.00
2022-08-17T13:18:43.455Z,1.00
2022-08-17T13:24:38.228Z,1.00
2022-08-17T13:30:34.185Z,1.00
2022-08-17T13:36:30.454Z,1.00
2022-08-17T13:42:51.780Z,1.00
2022-08-17T13:48:57.930Z,1.00
2022-08-17T13:54:53.214Z,1.00
2022-08-17T14:00:50.972Z,1.00
2022-08-17T14:06:53.435Z,1.00
2022-08-17T14:12:47.319Z,1.00
2022-08-17T14:18:56.118Z,1.00
2022-08-17T14:24:52.923Z,1.00
2022-08-17T14:30:46.303Z,1.00
2022-08-17T14:36:41.723Z,1.00
2022-08-17T14:42:45.995Z,1.00
2022-08-17T14:48:40.947Z,1.00
2022-08-17T14:54:34.738Z,1.00
2022-08-17T15:00:29.778Z,1.00
2022-08-17T15:06:25.085Z,1.00
2022-08-17T15:12:21.178Z,1.00
2022-08-17T15:18:16.638Z,1.00
2022-08-17T15:24:10.159Z,1.00
2022-08-17T15:30:03.910Z,1.00
2022-08-17T15:36:06.819Z,1.00
2022-08-17T15:42:04.967Z,1.00
2022-08-17T15:47:58.319Z,1.00
2022-08-17T15:53:55.783Z,1.00
2022-08-17T15:59:55.201Z,1.00
2022-08-17T16:05:52.540Z,1.00
2022-08-17T16:11:52.188Z,1.00
2022-08-17T16:17:49.182Z,1.00
2022-08-17T16:23:42.625Z,1.00
2022-08-17T16:29:37.720Z,1.00
2022-08-17T16:35:30.791Z,1.00
2022-08-17T16:41:45.777Z,1.00
2022-08-17T16:47:42.172Z,1.00
2022-08-17T16:53:35.589Z,1.00
2022-08-17T16:59:30.855Z,1.00
2022-08-17T17:05:48.474Z,1.00
2022-08-17T17:11:54.739Z,1.00
2022-08-17T17:17:50.097Z,1.00
2022-08-17T17:23:51.698Z,1.00
2022-08-17T17:29:57.206Z,1.00
2022-08-17T17:35:54.970Z,1.00
2022-08-17T17:41:54.200Z,1.00
2022-08-17T17:47:48.003Z,1.00
2022-08-17T17:53:49.293Z,1.00
2022-08-17T17:59:48.492Z,1.00
2022-08-17T18:05:52.799Z,1.00
2022-08-17T18:12:20.095Z,1.00
2022-08-17T18:18:38.083Z,1.00
2022-08-17T18:24:34.115Z,1.00
2022-08-17T18:30:30.253Z,1.00
2022-08-17T18:36:31.358Z,1.00
2022-08-17T18:42:28.458Z,1.00
2022-08-17T18:48:26.496Z,99.90
2022-08-17T18:54:24.486Z,99.90
2022-08-17T19:00:22.462Z,99.90
2022-08-17T19:06:24.896Z,99.90
2022-08-17T19:12:27.712Z,99.90
2022-08-17T19:18:25.590Z,99.90
2022-08-17T19:24:21.616Z,99.90
2022-08-17T19:30:17.678Z,99.90
2022-08-17T19:36:27.930Z,99.90
2022-08-17T19:42:32.759Z,99.90
2022-08-17T19:48:39.452Z,99.90
2022-08-17T19:54:38.429Z,99.90
2022-08-17T20:00:33.190Z,99.90
2022-08-17T20:06:34.569Z,99.90
2022-08-17T20:12:32.763Z,99.90
2022-08-17T20:18:32.289Z,99.90
2022-08-17T20:24:35.929Z,99.90
2022-08-17T20:30:37.689Z,99.90
2022-08-17T20:36:37.051Z,99.90
2022-08-17T20:42:34.315Z,99.90
2022-08-17T20:48:38.315Z,99.90
2022-08-17T20:54:51.159Z,99.90
2022-08-17T21:00:47.785Z,99.90
2022-08-17T21:07:17.590Z,99.90
2022-08-17T21:13:41.635Z,99.90
2022-08-17T21:20:10.425Z,99.90
2022-08-17T21:26:15.991Z,99.90
2022-08-17T21:32:19.280Z,99.90
2022-08-17T21:38:21.617Z,99.90
2022-08-17T21:44:22.490Z,99.90
2022-08-17T21:50:20.126Z,99.90
2022-08-17T21:56:23.740Z,99.90
2022-08-17T22:02:21.317Z,99.90
2022-08-17T22:08:20.890Z,99.90
2022-08-17T22:14:21.670Z,99.90
2022-08-17T22:20:18.529Z,99.90
2022-08-17T22:26:14.747Z,99.90
2022-08-17T22:32:09.560Z,99.90
2022-08-17T22:38:29.557Z,99.90
2022-08-17T22:44:29.800Z,99.90
2022-08-17T22:50:26.282Z,99.90
2022-08-17T22:56:39.688Z,99.90
2022-08-17T23:02:35.552Z,99.90
2022-08-17T23:08:49.689Z,99.90
2022-08-17T23:14:45.519Z,99.90
2022-08-17T23:20:41.414Z,99.90
2022-08-17T23:26:39.612Z,99.90
2022-08-17T23:32:36.985Z,99.90
2022-08-17T23:38:48.155Z,99.90
2022-08-17T23:44:44.177Z,99.90
2022-08-17T23:50:38.321Z,99.90
2022-08-17T23:56:33.897Z,99.90
